Accueil
METAR-TAF:

METAR-TAF

Aéroports :

Salluit, Québec, Canada

Aéroport de Salluit

latitude: 62-11N, longitude: 075-40W, altitude: 226 m

Observation

Le bulletin a été fait il y a 6 heures et 22 minutes, à 22:00 UTC
Vent 3 kt de sud/sud-ouest
Température -25°C
Humidité 76%
Pression 1003 hPa
Visibilité: 16.1 km
Nuages fragmentés à une hauteur de 1500 ft
neige faible

METAR: CYZG 232200Z 21003KT 10SM -SN BKN015 M25/M28 A2962 RMK SC7 SNW CVR TRACE LOOSE LAST STFD OBS/NEXT 241300 UTC SLP066

Heure: 23:22 (04:22 UTC)

Prévision

Le bulletin a été fait il y a 6 heures et 56 minutes, à 21:26 UTC
Prévision valable du 23 à 21 UTC au 23 à 22 UTC
Vent 3 kt de direction variable
Visibilité: 10 km
Quelques nuages à une hauteur de 2000 ft
Temporairement
du 23 à 21 UTC au 23 à 22 UTC
Nuages fragmentés à une hauteur de 2000 ft

TAF: CYZG 232126Z 2321/2322 VRB03KT P6SM FEW020 TEMPO 2321/2322 BKN020 RMK NXT FCST WILL BE ISSUED AT 241445Z

Observations et prévisions météorologiques de plus de 4000 aéroports (messages METAR et TAF).

Les stations disponibles sont représentées par des disques jaunes et rouges sur la carte.

Passer la souris dessus pour voir le nom de la station.

Cliquer dessus pour voir les observations et prévisions météorologiques.

Pour changer de carte: cliquez sur les boutons verts avec une croix noire pour zoomer, sur le bouton vert avec un tiret pour effectuer un zoom arrière, ou sur les flèches vertes pour les cartes adjacentes.


METAR-TAF: